Alaska, Minnesota
Current Conditions -  °F | °C
As of 6:34 AM on Sunday 21 Dec 2014 (Local Time) from KBJI Reporting Station
Haze Haze  
Wind Chill: -7°   Ceiling: 400
Heat Index: -2°   Visibility: 5mi
Dew Point: -2°   Wind: 12mph
Humidity: 96%   Direction: 160°SSE
Pressure: 29.78"   Gusts: NA
Location:  47.7369°N, 94.9947°W
Report Text: KBJI 211234Z AUTO 16010KT 5SM BR OVC004 M02/M02 A2978 RMK AO2 T10171022
Loading
Personal Weather Stations






























Interactive Weather Map New forecast layout! Learn more

10-Day Weather Forecast

Advertisements
Track Severe Weather on mobile